sensor_id;sensor_type;location;lat;lon;timestamp;temperature;humidity
26224;DHT22;14820;48.682;8.890;2023-12-20T00:01:01;5.10;99.90
26224;DHT22;14820;48.682;8.890;2023-12-20T00:03:26;5.20;99.90
26224;DHT22;14820;48.682;8.890;2023-12-20T00:05:52;5.20;99.90
26224;DHT22;14820;48.682;8.890;2023-12-20T00:08:18;5.20;99.90
26224;DHT22;14820;48.682;8.890;2023-12-20T00:10:44;5.20;99.90
26224;DHT22;14820;48.682;8.890;2023-12-20T00:13:10;5.20;99.90
26224;DHT22;14820;48.682;8.890;2023-12-20T00:15:36;5.20;99.90
26224;DHT22;14820;48.682;8.890;2023-12-20T00:18:01;5.20;99.90
26224;DHT22;14820;48.682;8.890;2023-12-20T00:20:28;5.20;99.90
26224;DHT22;14820;48.682;8.890;2023-12-20T00:22:56;5.10;99.90
26224;DHT22;14820;48.682;8.890;2023-12-20T00:25:25;5.10;99.90
26224;DHT22;14820;48.682;8.890;2023-12-20T00:27:52;5.10;99.90
26224;DHT22;14820;48.682;8.890;2023-12-20T00:30:18;5.20;99.90
26224;DHT22;14820;48.682;8.890;2023-12-20T00:32:43;5.20;99.90
26224;DHT22;14820;48.682;8.890;2023-12-20T00:35:15;5.20;99.90
26224;DHT22;14820;48.682;8.890;2023-12-20T00:37:42;5.20;99.90
26224;DHT22;14820;48.682;8.890;2023-12-20T00:40:08;5.20;99.90
26224;DHT22;14820;48.682;8.890;2023-12-20T00:42:34;5.10;99.90
26224;DHT22;14820;48.682;8.890;2023-12-20T00:45:00;5.20;99.90
26224;DHT22;14820;48.682;8.890;2023-12-20T00:47:26;5.10;99.90
26224;DHT22;14820;48.682;8.890;2023-12-20T00:49:51;5.10;99.90
26224;DHT22;14820;48.682;8.890;2023-12-20T00:52:18;5.10;99.90
26224;DHT22;14820;48.682;8.890;2023-12-20T00:54:44;5.10;99.90
26224;DHT22;14820;48.682;8.890;2023-12-20T00:57:09;5.10;99.90
26224;DHT22;14820;48.682;8.890;2023-12-20T00:59:35;5.10;99.90
26224;DHT22;14820;48.682;8.890;2023-12-20T01:02:01;5.10;99.90
26224;DHT22;14820;48.682;8.890;2023-12-20T01:04:27;5.10;99.90
26224;DHT22;14820;48.682;8.890;2023-12-20T01:06:53;5.10;99.90
26224;DHT22;14820;48.682;8.890;2023-12-20T01:09:19;5.10;99.90
26224;DHT22;14820;48.682;8.890;2023-12-20T01:11:45;5.20;99.90
26224;DHT22;14820;48.682;8.890;2023-12-20T01:14:13;5.10;99.90
26224;DHT22;14820;48.682;8.890;2023-12-20T01:16:39;5.10;99.90
26224;DHT22;14820;48.682;8.890;2023-12-20T01:19:04;5.10;99.90
26224;DHT22;14820;48.682;8.890;2023-12-20T01:21:30;5.10;99.90
26224;DHT22;14820;48.682;8.890;2023-12-20T01:23:55;5.10;99.90
26224;DHT22;14820;48.682;8.890;2023-12-20T01:26:21;5.10;99.90
26224;DHT22;14820;48.682;8.890;2023-12-20T01:28:47;5.10;99.90
26224;DHT22;14820;48.682;8.890;2023-12-20T01:31:13;5.10;99.90
26224;DHT22;14820;48.682;8.890;2023-12-20T01:33:38;5.10;99.90
26224;DHT22;14820;48.682;8.890;2023-12-20T01:36:04;5.20;99.90
26224;DHT22;14820;48.682;8.890;2023-12-20T01:38:30;5.20;99.90
26224;DHT22;14820;48.682;8.890;2023-12-20T01:40:55;5.20;99.90
26224;DHT22;14820;48.682;8.890;2023-12-20T01:43:21;5.20;99.90
26224;DHT22;14820;48.682;8.890;2023-12-20T01:45:47;5.30;99.90
26224;DHT22;14820;48.682;8.890;2023-12-20T01:48:15;5.30;99.90
26224;DHT22;14820;48.682;8.890;2023-12-20T01:50:41;5.30;99.90
26224;DHT22;14820;48.682;8.890;2023-12-20T01:53:09;5.30;99.90
26224;DHT22;14820;48.682;8.890;2023-12-20T01:55:39;5.30;99.90
26224;DHT22;14820;48.682;8.890;2023-12-20T01:58:06;5.30;99.90
26224;DHT22;14820;48.682;8.890;2023-12-20T02:00:33;5.30;99.90
26224;DHT22;14820;48.682;8.890;2023-12-20T02:03:01;5.30;99.90
26224;DHT22;14820;48.682;8.890;2023-12-20T02:05:27;5.30;99.90
26224;DHT22;14820;48.682;8.890;2023-12-20T02:07:53;5.30;99.90
26224;DHT22;14820;48.682;8.890;2023-12-20T02:10:19;5.30;99.90
26224;DHT22;14820;48.682;8.890;2023-12-20T02:12:45;5.30;99.90
26224;DHT22;14820;48.682;8.890;2023-12-20T02:15:10;5.30;99.90
26224;DHT22;14820;48.682;8.890;2023-12-20T02:17:36;5.30;99.90
26224;DHT22;14820;48.682;8.890;2023-12-20T02:20:03;5.30;99.90
26224;DHT22;14820;48.682;8.890;2023-12-20T02:22:29;5.30;99.90
26224;DHT22;14820;48.682;8.890;2023-12-20T02:24:54;5.30;99.90
26224;DHT22;14820;48.682;8.890;2023-12-20T02:27:20;5.30;99.90
26224;DHT22;14820;48.682;8.890;2023-12-20T02:29:47;5.30;99.90
26224;DHT22;14820;48.682;8.890;2023-12-20T02:32:13;5.30;99.90
26224;DHT22;14820;48.682;8.890;2023-12-20T02:34:39;5.30;99.90
26224;DHT22;14820;48.682;8.890;2023-12-20T02:37:05;5.30;99.90
26224;DHT22;14820;48.682;8.890;2023-12-20T02:39:30;5.30;99.90
26224;DHT22;14820;48.682;8.890;2023-12-20T02:41:56;5.30;99.90
26224;DHT22;14820;48.682;8.890;2023-12-20T02:44:21;5.30;99.90
26224;DHT22;14820;48.682;8.890;2023-12-20T02:46:47;5.30;99.90
26224;DHT22;14820;48.682;8.890;2023-12-20T02:49:13;5.30;99.90
26224;DHT22;14820;48.682;8.890;2023-12-20T02:51:38;5.30;99.90
26224;DHT22;14820;48.682;8.890;2023-12-20T02:54:04;5.30;99.90
26224;DHT22;14820;48.682;8.890;2023-12-20T02:56:32;5.20;99.90
26224;DHT22;14820;48.682;8.890;2023-12-20T02:58:57;5.20;99.90
26224;DHT22;14820;48.682;8.890;2023-12-20T03:01:23;5.20;99.90
26224;DHT22;14820;48.682;8.890;2023-12-20T03:03:49;5.20;99.90
26224;DHT22;14820;48.682;8.890;2023-12-20T03:06:20;5.20;99.90
26224;DHT22;14820;48.682;8.890;2023-12-20T03:08:46;5.20;99.90
26224;DHT22;14820;48.682;8.890;2023-12-20T03:11:12;5.20;99.90
26224;DHT22;14820;48.682;8.890;2023-12-20T03:13:37;5.20;99.90
26224;DHT22;14820;48.682;8.890;2023-12-20T03:16:10;5.10;99.90
26224;DHT22;14820;48.682;8.890;2023-12-20T03:18:36;5.10;99.90
26224;DHT22;14820;48.682;8.890;2023-12-20T03:21:02;5.10;99.90
26224;DHT22;14820;48.682;8.890;2023-12-20T03:23:27;5.10;99.90
26224;DHT22;14820;48.682;8.890;2023-12-20T03:25:53;5.10;99.90
26224;DHT22;14820;48.682;8.890;2023-12-20T03:28:19;5.10;99.90
26224;DHT22;14820;48.682;8.890;2023-12-20T03:30:44;5.20;99.90
26224;DHT22;14820;48.682;8.890;2023-12-20T03:33:10;5.10;99.90
26224;DHT22;14820;48.682;8.890;2023-12-20T03:35:36;5.10;99.90
26224;DHT22;14820;48.682;8.890;2023-12-20T03:38:02;5.10;99.90
26224;DHT22;14820;48.682;8.890;2023-12-20T03:40:28;5.00;99.90
26224;DHT22;14820;48.682;8.890;2023-12-20T03:42:53;5.00;99.90
26224;DHT22;14820;48.682;8.890;2023-12-20T03:45:19;5.00;99.90
26224;DHT22;14820;48.682;8.890;2023-12-20T03:47:44;5.00;99.90
26224;DHT22;14820;48.682;8.890;2023-12-20T03:50:10;5.00;99.90
26224;DHT22;14820;48.682;8.890;2023-12-20T03:52:36;5.00;99.90
26224;DHT22;14820;48.682;8.890;2023-12-20T03:55:01;5.00;99.90
26224;DHT22;14820;48.682;8.890;2023-12-20T03:57:27;4.90;99.90
26224;DHT22;14820;48.682;8.890;2023-12-20T03:59:53;4.90;99.90
26224;DHT22;14820;48.682;8.890;2023-12-20T04:02:19;4.90;99.90
26224;DHT22;14820;48.682;8.890;2023-12-20T04:04:44;4.90;99.90
26224;DHT22;14820;48.682;8.890;2023-12-20T04:07:10;4.90;99.90
26224;DHT22;14820;48.682;8.890;2023-12-20T04:09:36;4.90;99.90
26224;DHT22;14820;48.682;8.890;2023-12-20T04:12:01;4.80;99.90
26224;DHT22;14820;48.682;8.890;2023-12-20T04:14:27;4.90;99.90
26224;DHT22;14820;48.682;8.890;2023-12-20T04:16:53;4.90;99.90
26224;DHT22;14820;48.682;8.890;2023-12-20T04:19:19;4.90;99.90
26224;DHT22;14820;48.682;8.890;2023-12-20T04:21:45;4.90;99.90
26224;DHT22;14820;48.682;8.890;2023-12-20T04:24:10;4.80;99.90
26224;DHT22;14820;48.682;8.890;2023-12-20T04:26:36;4.80;99.90
26224;DHT22;14820;48.682;8.890;2023-12-20T04:29:02;4.80;99.90
26224;DHT22;14820;48.682;8.890;2023-12-20T04:31:27;4.80;99.90
26224;DHT22;14820;48.682;8.890;2023-12-20T04:33:53;4.70;99.90
26224;DHT22;14820;48.682;8.890;2023-12-20T04:36:19;4.70;99.90
26224;DHT22;14820;48.682;8.890;2023-12-20T04:38:44;4.70;99.90
26224;DHT22;14820;48.682;8.890;2023-12-20T04:41:10;4.70;99.90
26224;DHT22;14820;48.682;8.890;2023-12-20T04:43:35;4.70;99.90
26224;DHT22;14820;48.682;8.890;2023-12-20T04:46:01;4.60;99.90
26224;DHT22;14820;48.682;8.890;2023-12-20T04:48:27;4.70;99.90
26224;DHT22;14820;48.682;8.890;2023-12-20T04:50:53;4.60;99.90
26224;DHT22;14820;48.682;8.890;2023-12-20T04:53:18;4.70;99.90
26224;DHT22;14820;48.682;8.890;2023-12-20T04:55:44;4.70;99.90
26224;DHT22;14820;48.682;8.890;2023-12-20T04:58:10;4.60;99.90
26224;DHT22;14820;48.682;8.890;2023-12-20T05:00:35;4.70;99.90
26224;DHT22;14820;48.682;8.890;2023-12-20T05:03:01;4.70;99.90
26224;DHT22;14820;48.682;8.890;2023-12-20T05:05:26;4.70;99.90
26224;DHT22;14820;48.682;8.890;2023-12-20T05:07:52;4.70;99.90
26224;DHT22;14820;48.682;8.890;2023-12-20T05:10:18;4.70;99.90
26224;DHT22;14820;48.682;8.890;2023-12-20T05:12:43;4.70;99.90
26224;DHT22;14820;48.682;8.890;2023-12-20T05:15:09;4.70;99.90
26224;DHT22;14820;48.682;8.890;2023-12-20T05:17:34;4.70;99.90
26224;DHT22;14820;48.682;8.890;2023-12-20T05:20:00;4.70;99.90
26224;DHT22;14820;48.682;8.890;2023-12-20T05:22:26;4.70;99.90
26224;DHT22;14820;48.682;8.890;2023-12-20T05:24:53;4.70;99.90
26224;DHT22;14820;48.682;8.890;2023-12-20T05:27:18;4.70;99.90
26224;DHT22;14820;48.682;8.890;2023-12-20T05:29:44;4.70;99.90
26224;DHT22;14820;48.682;8.890;2023-12-20T05:32:10;4.70;99.90
26224;DHT22;14820;48.682;8.890;2023-12-20T05:34:35;4.70;99.90
26224;DHT22;14820;48.682;8.890;2023-12-20T05:37:02;4.60;99.90
26224;DHT22;14820;48.682;8.890;2023-12-20T05:39:27;4.70;99.90
26224;DHT22;14820;48.682;8.890;2023-12-20T05:41:53;4.70;99.90
26224;DHT22;14820;48.682;8.890;2023-12-20T05:44:19;4.70;99.90
26224;DHT22;14820;48.682;8.890;2023-12-20T05:46:44;4.70;99.90
26224;DHT22;14820;48.682;8.890;2023-12-20T05:49:10;4.70;99.90
26224;DHT22;14820;48.682;8.890;2023-12-20T05:51:36;4.70;99.90
26224;DHT22;14820;48.682;8.890;2023-12-20T05:54:02;4.70;99.90
26224;DHT22;14820;48.682;8.890;2023-12-20T05:56:27;4.70;99.90
26224;DHT22;14820;48.682;8.890;2023-12-20T05:58:53;4.70;99.90
26224;DHT22;14820;48.682;8.890;2023-12-20T06:01:18;4.70;99.90
26224;DHT22;14820;48.682;8.890;2023-12-20T06:03:44;4.70;99.90
26224;DHT22;14820;48.682;8.890;2023-12-20T06:06:11;4.70;99.90
26224;DHT22;14820;48.682;8.890;2023-12-20T06:08:38;4.70;99.90
26224;DHT22;14820;48.682;8.890;2023-12-20T06:11:04;4.70;99.90
26224;DHT22;14820;48.682;8.890;2023-12-20T06:13:31;4.70;99.90
26224;DHT22;14820;48.682;8.890;2023-12-20T06:15:57;4.60;99.90
26224;DHT22;14820;48.682;8.890;2023-12-20T06:18:23;4.70;99.90
26224;DHT22;14820;48.682;8.890;2023-12-20T06:20:49;4.60;99.90
26224;DHT22;14820;48.682;8.890;2023-12-20T06:23:15;4.60;99.90
26224;DHT22;14820;48.682;8.890;2023-12-20T06:25:41;4.60;99.90
26224;DHT22;14820;48.682;8.890;2023-12-20T06:28:07;4.60;99.90
26224;DHT22;14820;48.682;8.890;2023-12-20T06:30:33;4.60;99.90
26224;DHT22;14820;48.682;8.890;2023-12-20T06:32:59;4.60;99.90
26224;DHT22;14820;48.682;8.890;2023-12-20T06:35:25;4.60;99.90
26224;DHT22;14820;48.682;8.890;2023-12-20T06:37:50;4.60;99.90
26224;DHT22;14820;48.682;8.890;2023-12-20T06:40:16;4.60;99.90
26224;DHT22;14820;48.682;8.890;2023-12-20T06:42:42;4.60;99.90
26224;DHT22;14820;48.682;8.890;2023-12-20T06:45:08;4.60;99.90
26224;DHT22;14820;48.682;8.890;2023-12-20T06:47:34;4.60;99.90
26224;DHT22;14820;48.682;8.890;2023-12-20T06:50:00;4.60;99.90
26224;DHT22;14820;48.682;8.890;2023-12-20T06:52:26;4.60;99.90
26224;DHT22;14820;48.682;8.890;2023-12-20T06:54:51;4.60;99.90
26224;DHT22;14820;48.682;8.890;2023-12-20T06:57:17;4.60;99.90
26224;DHT22;14820;48.682;8.890;2023-12-20T06:59:43;4.60;99.90
26224;DHT22;14820;48.682;8.890;2023-12-20T07:02:09;4.60;99.90
26224;DHT22;14820;48.682;8.890;2023-12-20T07:04:39;4.60;99.90
26224;DHT22;14820;48.682;8.890;2023-12-20T07:07:05;4.60;99.90
26224;DHT22;14820;48.682;8.890;2023-12-20T07:09:33;4.70;99.90
26224;DHT22;14820;48.682;8.890;2023-12-20T07:11:58;4.70;99.90
26224;DHT22;14820;48.682;8.890;2023-12-20T07:14:24;4.70;99.90
26224;DHT22;14820;48.682;8.890;2023-12-20T07:16:50;4.70;99.90
26224;DHT22;14820;48.682;8.890;2023-12-20T07:19:16;4.70;99.90
26224;DHT22;14820;48.682;8.890;2023-12-20T07:21:41;4.70;99.90
26224;DHT22;14820;48.682;8.890;2023-12-20T07:24:07;4.70;99.90
26224;DHT22;14820;48.682;8.890;2023-12-20T07:26:33;4.70;99.90
26224;DHT22;14820;48.682;8.890;2023-12-20T07:28:59;4.70;99.90
26224;DHT22;14820;48.682;8.890;2023-12-20T07:31:25;4.80;99.90
26224;DHT22;14820;48.682;8.890;2023-12-20T07:33:51;4.80;99.90
26224;DHT22;14820;48.682;8.890;2023-12-20T07:36:17;4.80;99.90
26224;DHT22;14820;48.682;8.890;2023-12-20T07:38:42;4.80;99.90
26224;DHT22;14820;48.682;8.890;2023-12-20T07:41:10;4.80;99.90
26224;DHT22;14820;48.682;8.890;2023-12-20T07:43:36;4.80;99.90
26224;DHT22;14820;48.682;8.890;2023-12-20T07:46:06;4.80;99.90
26224;DHT22;14820;48.682;8.890;2023-12-20T07:48:32;4.70;99.90
26224;DHT22;14820;48.682;8.890;2023-12-20T07:50:57;4.70;99.90
26224;DHT22;14820;48.682;8.890;2023-12-20T07:53:23;4.80;99.90
26224;DHT22;14820;48.682;8.890;2023-12-20T07:55:49;4.70;99.90
26224;DHT22;14820;48.682;8.890;2023-12-20T07:58:14;4.70;99.90
26224;DHT22;14820;48.682;8.890;2023-12-20T08:00:40;4.70;99.90
26224;DHT22;14820;48.682;8.890;2023-12-20T08:03:05;4.70;99.90
26224;DHT22;14820;48.682;8.890;2023-12-20T08:05:32;4.80;99.90
26224;DHT22;14820;48.682;8.890;2023-12-20T08:07:58;4.70;99.90
26224;DHT22;14820;48.682;8.890;2023-12-20T08:10:24;4.80;99.90
26224;DHT22;14820;48.682;8.890;2023-12-20T08:12:49;4.80;99.90
26224;DHT22;14820;48.682;8.890;2023-12-20T08:15:15;4.80;99.90
26224;DHT22;14820;48.682;8.890;2023-12-20T08:17:40;4.80;99.90
26224;DHT22;14820;48.682;8.890;2023-12-20T08:20:06;4.80;99.90
26224;DHT22;14820;48.682;8.890;2023-12-20T08:22:32;4.80;99.90
26224;DHT22;14820;48.682;8.890;2023-12-20T08:24:58;4.80;99.90
26224;DHT22;14820;48.682;8.890;2023-12-20T08:27:24;4.80;99.90
26224;DHT22;14820;48.682;8.890;2023-12-20T08:29:51;4.70;99.90
26224;DHT22;14820;48.682;8.890;2023-12-20T08:32:16;4.70;99.90
26224;DHT22;14820;48.682;8.890;2023-12-20T08:34:42;4.70;99.90
26224;DHT22;14820;48.682;8.890;2023-12-20T08:37:08;4.70;99.90
26224;DHT22;14820;48.682;8.890;2023-12-20T08:39:33;4.70;99.90
26224;DHT22;14820;48.682;8.890;2023-12-20T08:41:59;4.60;99.90
26224;DHT22;14820;48.682;8.890;2023-12-20T08:44:25;4.60;99.90
26224;DHT22;14820;48.682;8.890;2023-12-20T08:46:50;4.60;99.90
26224;DHT22;14820;48.682;8.890;2023-12-20T08:49:16;4.50;99.90
26224;DHT22;14820;48.682;8.890;2023-12-20T08:51:42;4.50;99.90
26224;DHT22;14820;48.682;8.890;2023-12-20T08:54:08;4.40;99.90
26224;DHT22;14820;48.682;8.890;2023-12-20T08:56:34;4.40;99.90
26224;DHT22;14820;48.682;8.890;2023-12-20T08:58:59;4.40;99.90
26224;DHT22;14820;48.682;8.890;2023-12-20T09:01:25;4.40;99.90
26224;DHT22;14820;48.682;8.890;2023-12-20T09:03:51;4.30;99.90
26224;DHT22;14820;48.682;8.890;2023-12-20T09:06:16;4.30;99.90
26224;DHT22;14820;48.682;8.890;2023-12-20T09:08:42;4.30;99.90
26224;DHT22;14820;48.682;8.890;2023-12-20T09:11:07;4.30;99.90
26224;DHT22;14820;48.682;8.890;2023-12-20T09:13:33;4.30;99.90
26224;DHT22;14820;48.682;8.890;2023-12-20T09:15:59;4.40;99.90
26224;DHT22;14820;48.682;8.890;2023-12-20T09:18:25;4.30;99.90
26224;DHT22;14820;48.682;8.890;2023-12-20T09:20:50;4.40;99.90
26224;DHT22;14820;48.682;8.890;2023-12-20T09:23:16;4.40;99.90
26224;DHT22;14820;48.682;8.890;2023-12-20T09:25:43;4.40;99.90
26224;DHT22;14820;48.682;8.890;2023-12-20T09:28:09;4.40;99.90
26224;DHT22;14820;48.682;8.890;2023-12-20T09:30:36;4.50;99.90
26224;DHT22;14820;48.682;8.890;2023-12-20T09:33:05;4.50;99.90
26224;DHT22;14820;48.682;8.890;2023-12-20T09:35:32;4.60;99.90
26224;DHT22;14820;48.682;8.890;2023-12-20T09:37:58;4.70;99.90
26224;DHT22;14820;48.682;8.890;2023-12-20T09:40:26;4.80;99.90
26224;DHT22;14820;48.682;8.890;2023-12-20T09:42:58;4.80;99.90
26224;DHT22;14820;48.682;8.890;2023-12-20T09:45:24;4.90;99.90
26224;DHT22;14820;48.682;8.890;2023-12-20T09:47:52;4.90;99.90
26224;DHT22;14820;48.682;8.890;2023-12-20T09:50:19;5.00;99.90
26224;DHT22;14820;48.682;8.890;2023-12-20T09:52:52;5.00;99.90
26224;DHT22;14820;48.682;8.890;2023-12-20T09:55:19;5.10;99.90
26224;DHT22;14820;48.682;8.890;2023-12-20T09:57:46;5.20;99.90
26224;DHT22;14820;48.682;8.890;2023-12-20T10:00:13;5.20;99.90
26224;DHT22;14820;48.682;8.890;2023-12-20T10:02:43;5.30;99.90
26224;DHT22;14820;48.682;8.890;2023-12-20T10:05:15;5.30;99.90
26224;DHT22;14820;48.682;8.890;2023-12-20T10:07:41;5.30;99.90
26224;DHT22;14820;48.682;8.890;2023-12-20T10:10:07;5.30;99.90
26224;DHT22;14820;48.682;8.890;2023-12-20T10:12:34;5.20;99.90
26224;DHT22;14820;48.682;8.890;2023-12-20T10:14:59;5.10;99.90
26224;DHT22;14820;48.682;8.890;2023-12-20T10:17:27;5.10;99.90
26224;DHT22;14820;48.682;8.890;2023-12-20T10:19:54;5.10;99.90
26224;DHT22;14820;48.682;8.890;2023-12-20T10:22:21;5.10;99.90
26224;DHT22;14820;48.682;8.890;2023-12-20T10:24:47;5.00;99.90
26224;DHT22;14820;48.682;8.890;2023-12-20T10:27:12;5.00;99.90
26224;DHT22;14820;48.682;8.890;2023-12-20T10:29:38;4.90;99.90
26224;DHT22;14820;48.682;8.890;2023-12-20T10:32:26;4.90;99.90
26224;DHT22;14820;48.682;8.890;2023-12-20T10:34:53;5.00;99.90
26224;DHT22;14820;48.682;8.890;2023-12-20T10:37:19;5.00;99.90
26224;DHT22;14820;48.682;8.890;2023-12-20T10:39:53;4.90;99.90
26224;DHT22;14820;48.682;8.890;2023-12-20T10:42:22;4.90;99.90
26224;DHT22;14820;48.682;8.890;2023-12-20T10:44:49;4.90;99.90
26224;DHT22;14820;48.682;8.890;2023-12-20T10:47:15;4.90;99.90
26224;DHT22;14820;48.682;8.890;2023-12-20T10:49:42;5.00;99.90
26224;DHT22;14820;48.682;8.890;2023-12-20T10:52:11;4.90;99.90
26224;DHT22;14820;48.682;8.890;2023-12-20T10:54:37;4.90;99.90
26224;DHT22;14820;48.682;8.890;2023-12-20T10:57:05;4.90;99.90
26224;DHT22;14820;48.682;8.890;2023-12-20T10:59:33;4.90;99.90
26224;DHT22;14820;48.682;8.890;2023-12-20T11:01:59;5.00;99.90
26224;DHT22;14820;48.682;8.890;2023-12-20T11:04:56;5.00;99.90
26224;DHT22;14820;48.682;8.890;2023-12-20T11:07:41;5.00;99.90
26224;DHT22;14820;48.682;8.890;2023-12-20T11:13:10;5.20;99.90
26224;DHT22;14820;48.682;8.890;2023-12-20T11:15:38;5.20;99.90
26224;DHT22;14820;48.682;8.890;2023-12-20T11:18:04;5.10;99.90
26224;DHT22;14820;48.682;8.890;2023-12-20T11:20:38;5.10;99.90
26224;DHT22;14820;48.682;8.890;2023-12-20T11:23:04;5.10;99.90
26224;DHT22;14820;48.682;8.890;2023-12-20T11:25:52;5.00;99.90
26224;DHT22;14820;48.682;8.890;2023-12-20T11:28:23;5.00;99.90
26224;DHT22;14820;48.682;8.890;2023-12-20T11:30:57;5.00;99.90
26224;DHT22;14820;48.682;8.890;2023-12-20T11:33:36;4.90;99.90
26224;DHT22;14820;48.682;8.890;2023-12-20T11:36:02;4.90;99.90
26224;DHT22;14820;48.682;8.890;2023-12-20T11:38:38;4.90;99.90
26224;DHT22;14820;48.682;8.890;2023-12-20T11:41:15;4.90;99.90
26224;DHT22;14820;48.682;8.890;2023-12-20T11:43:42;4.90;99.90
26224;DHT22;14820;48.682;8.890;2023-12-20T11:46:09;4.90;99.90
26224;DHT22;14820;48.682;8.890;2023-12-20T11:48:38;4.90;99.90
26224;DHT22;14820;48.682;8.890;2023-12-20T11:51:11;4.90;99.90
26224;DHT22;14820;48.682;8.890;2023-12-20T11:53:37;4.80;99.90
26224;DHT22;14820;48.682;8.890;2023-12-20T11:56:06;4.80;99.90
26224;DHT22;14820;48.682;8.890;2023-12-20T11:58:33;4.80;99.90
26224;DHT22;14820;48.682;8.890;2023-12-20T12:00:59;4.80;99.90
26224;DHT22;14820;48.682;8.890;2023-12-20T12:03:25;4.80;99.90
26224;DHT22;14820;48.682;8.890;2023-12-20T12:05:51;4.90;99.90
26224;DHT22;14820;48.682;8.890;2023-12-20T12:08:17;4.90;99.90
26224;DHT22;14820;48.682;8.890;2023-12-20T12:10:46;4.90;99.90
26224;DHT22;14820;48.682;8.890;2023-12-20T12:13:12;4.90;99.90
26224;DHT22;14820;48.682;8.890;2023-12-20T12:15:39;4.90;99.90
26224;DHT22;14820;48.682;8.890;2023-12-20T12:18:05;5.00;99.90
26224;DHT22;14820;48.682;8.890;2023-12-20T12:20:31;5.00;99.90
26224;DHT22;14820;48.682;8.890;2023-12-20T12:23:23;5.10;99.90
26224;DHT22;14820;48.682;8.890;2023-12-20T12:25:49;5.10;99.90
26224;DHT22;14820;48.682;8.890;2023-12-20T12:28:16;5.10;99.90
26224;DHT22;14820;48.682;8.890;2023-12-20T12:30:42;5.10;99.90
26224;DHT22;14820;48.682;8.890;2023-12-20T12:33:07;5.10;99.90
26224;DHT22;14820;48.682;8.890;2023-12-20T12:35:34;5.10;99.90
26224;DHT22;14820;48.682;8.890;2023-12-20T12:38:00;5.10;99.90
26224;DHT22;14820;48.682;8.890;2023-12-20T12:40:26;5.10;99.90
26224;DHT22;14820;48.682;8.890;2023-12-20T12:42:52;5.20;99.90
26224;DHT22;14820;48.682;8.890;2023-12-20T12:45:18;5.20;99.90
26224;DHT22;14820;48.682;8.890;2023-12-20T12:47:44;5.30;99.90
26224;DHT22;14820;48.682;8.890;2023-12-20T12:50:10;5.30;99.90
26224;DHT22;14820;48.682;8.890;2023-12-20T12:52:35;5.40;99.90
26224;DHT22;14820;48.682;8.890;2023-12-20T12:55:01;5.50;99.90
26224;DHT22;14820;48.682;8.890;2023-12-20T12:57:27;5.50;99.90
26224;DHT22;14820;48.682;8.890;2023-12-20T12:59:52;5.50;99.90
26224;DHT22;14820;48.682;8.890;2023-12-20T13:02:18;5.50;99.90
26224;DHT22;14820;48.682;8.890;2023-12-20T13:04:44;5.50;99.90
26224;DHT22;14820;48.682;8.890;2023-12-20T13:07:10;5.40;99.90
26224;DHT22;14820;48.682;8.890;2023-12-20T13:09:39;5.50;99.90
26224;DHT22;14820;48.682;8.890;2023-12-20T13:12:05;5.50;99.90
26224;DHT22;14820;48.682;8.890;2023-12-20T13:14:35;5.50;99.90
26224;DHT22;14820;48.682;8.890;2023-12-20T13:17:03;5.50;99.90
26224;DHT22;14820;48.682;8.890;2023-12-20T13:19:29;5.60;99.90
26224;DHT22;14820;48.682;8.890;2023-12-20T13:21:56;5.50;99.90
26224;DHT22;14820;48.682;8.890;2023-12-20T13:24:21;5.60;99.90
26224;DHT22;14820;48.682;8.890;2023-12-20T13:26:47;5.60;99.90
26224;DHT22;14820;48.682;8.890;2023-12-20T13:29:13;5.60;99.90
26224;DHT22;14820;48.682;8.890;2023-12-20T13:31:38;5.60;99.90
26224;DHT22;14820;48.682;8.890;2023-12-20T13:34:06;5.60;99.90
26224;DHT22;14820;48.682;8.890;2023-12-20T13:36:32;5.60;99.90
26224;DHT22;14820;48.682;8.890;2023-12-20T13:38:57;5.60;99.90
26224;DHT22;14820;48.682;8.890;2023-12-20T13:41:23;5.50;99.90
26224;DHT22;14820;48.682;8.890;2023-12-20T13:43:48;5.50;99.90
26224;DHT22;14820;48.682;8.890;2023-12-20T13:46:15;5.40;99.90
26224;DHT22;14820;48.682;8.890;2023-12-20T13:48:41;5.30;99.90
26224;DHT22;14820;48.682;8.890;2023-12-20T13:51:06;5.30;99.90
26224;DHT22;14820;48.682;8.890;2023-12-20T13:53:33;5.20;99.90
26224;DHT22;14820;48.682;8.890;2023-12-20T13:55:58;5.20;99.90
26224;DHT22;14820;48.682;8.890;2023-12-20T13:58:25;5.20;99.90
26224;DHT22;14820;48.682;8.890;2023-12-20T14:00:52;5.20;99.90
26224;DHT22;14820;48.682;8.890;2023-12-20T14:03:18;5.20;99.90
26224;DHT22;14820;48.682;8.890;2023-12-20T14:05:45;5.20;99.90
26224;DHT22;14820;48.682;8.890;2023-12-20T14:08:11;5.20;99.90
26224;DHT22;14820;48.682;8.890;2023-12-20T14:10:36;5.20;99.90
26224;DHT22;14820;48.682;8.890;2023-12-20T14:13:02;5.10;99.90
26224;DHT22;14820;48.682;8.890;2023-12-20T14:15:28;5.00;99.90
26224;DHT22;14820;48.682;8.890;2023-12-20T14:17:53;5.00;99.90
26224;DHT22;14820;48.682;8.890;2023-12-20T14:20:20;5.00;99.90
26224;DHT22;14820;48.682;8.890;2023-12-20T14:22:45;5.00;99.90
26224;DHT22;14820;48.682;8.890;2023-12-20T14:25:15;5.00;99.90
26224;DHT22;14820;48.682;8.890;2023-12-20T14:27:41;5.00;99.90
26224;DHT22;14820;48.682;8.890;2023-12-20T14:30:09;5.10;99.90
26224;DHT22;14820;48.682;8.890;2023-12-20T14:32:35;5.00;99.90
26224;DHT22;14820;48.682;8.890;2023-12-20T14:35:07;4.90;99.90
26224;DHT22;14820;48.682;8.890;2023-12-20T14:37:34;4.90;99.90
26224;DHT22;14820;48.682;8.890;2023-12-20T14:40:00;4.80;99.90
26224;DHT22;14820;48.682;8.890;2023-12-20T14:42:26;4.80;99.90
26224;DHT22;14820;48.682;8.890;2023-12-20T14:44:52;4.80;99.90
26224;DHT22;14820;48.682;8.890;2023-12-20T14:47:19;4.80;99.90
26224;DHT22;14820;48.682;8.890;2023-12-20T14:49:45;4.80;99.90
26224;DHT22;14820;48.682;8.890;2023-12-20T14:52:13;4.80;99.90
26224;DHT22;14820;48.682;8.890;2023-12-20T14:54:38;4.70;99.90
26224;DHT22;14820;48.682;8.890;2023-12-20T14:57:04;4.80;99.90
26224;DHT22;14820;48.682;8.890;2023-12-20T14:59:30;4.70;99.90
26224;DHT22;14820;48.682;8.890;2023-12-20T15:01:56;4.70;99.90
26224;DHT22;14820;48.682;8.890;2023-12-20T15:04:21;4.70;99.90
26224;DHT22;14820;48.682;8.890;2023-12-20T15:06:56;4.70;99.90
26224;DHT22;14820;48.682;8.890;2023-12-20T15:09:22;4.60;99.90
26224;DHT22;14820;48.682;8.890;2023-12-20T15:11:48;4.60;99.90
26224;DHT22;14820;48.682;8.890;2023-12-20T15:14:13;4.60;99.90
26224;DHT22;14820;48.682;8.890;2023-12-20T15:16:47;4.60;99.90
26224;DHT22;14820;48.682;8.890;2023-12-20T15:19:13;4.60;99.90
26224;DHT22;14820;48.682;8.890;2023-12-20T15:21:38;4.60;99.90
26224;DHT22;14820;48.682;8.890;2023-12-20T15:24:08;4.60;99.90
26224;DHT22;14820;48.682;8.890;2023-12-20T15:26:42;4.60;99.90
26224;DHT22;14820;48.682;8.890;2023-12-20T15:29:09;4.50;99.90
26224;DHT22;14820;48.682;8.890;2023-12-20T15:31:37;4.50;99.90
26224;DHT22;14820;48.682;8.890;2023-12-20T15:34:07;4.50;99.90
26224;DHT22;14820;48.682;8.890;2023-12-20T15:36:32;4.50;99.90
26224;DHT22;14820;48.682;8.890;2023-12-20T15:38:58;4.50;99.90
26224;DHT22;14820;48.682;8.890;2023-12-20T15:41:23;4.40;99.90
26224;DHT22;14820;48.682;8.890;2023-12-20T15:43:49;4.40;99.90